sensor_id;sensor_type;location;lat;lon;timestamp;temperature;humidity
15554;DHT22;7878;44.632;10.942;2023-08-06T00:00:25;21.70;99.90
15554;DHT22;7878;44.632;10.942;2023-08-06T00:02:51;21.60;99.90
15554;DHT22;7878;44.632;10.942;2023-08-06T00:05:17;21.70;99.90
15554;DHT22;7878;44.632;10.942;2023-08-06T00:07:48;21.60;99.90
15554;DHT22;7878;44.632;10.942;2023-08-06T00:10:14;21.60;99.90
15554;DHT22;7878;44.632;10.942;2023-08-06T00:12:40;21.70;99.90
15554;DHT22;7878;44.632;10.942;2023-08-06T00:15:06;21.70;99.90
15554;DHT22;7878;44.632;10.942;2023-08-06T00:17:33;21.70;99.90
15554;DHT22;7878;44.632;10.942;2023-08-06T00:19:58;21.70;99.90
15554;DHT22;7878;44.632;10.942;2023-08-06T00:22:30;21.70;99.90
15554;DHT22;7878;44.632;10.942;2023-08-06T00:24:56;21.70;99.90
15554;DHT22;7878;44.632;10.942;2023-08-06T00:27:23;21.70;99.90
15554;DHT22;7878;44.632;10.942;2023-08-06T00:29:48;21.60;99.90
15554;DHT22;7878;44.632;10.942;2023-08-06T00:32:14;21.60;99.90
15554;DHT22;7878;44.632;10.942;2023-08-06T00:34:40;21.50;99.90
15554;DHT22;7878;44.632;10.942;2023-08-06T00:37:05;21.50;99.90
15554;DHT22;7878;44.632;10.942;2023-08-06T00:39:31;21.50;99.90
15554;DHT22;7878;44.632;10.942;2023-08-06T00:41:57;21.50;99.90
15554;DHT22;7878;44.632;10.942;2023-08-06T00:44:23;21.50;99.90
15554;DHT22;7878;44.632;10.942;2023-08-06T00:46:49;21.50;99.90
15554;DHT22;7878;44.632;10.942;2023-08-06T00:49:15;21.50;99.90
15554;DHT22;7878;44.632;10.942;2023-08-06T00:51:42;21.60;99.90
15554;DHT22;7878;44.632;10.942;2023-08-06T00:54:09;21.60;99.90
15554;DHT22;7878;44.632;10.942;2023-08-06T00:56:35;21.60;99.90
15554;DHT22;7878;44.632;10.942;2023-08-06T00:59:01;21.60;99.90
15554;DHT22;7878;44.632;10.942;2023-08-06T01:01:27;21.60;99.90
15554;DHT22;7878;44.632;10.942;2023-08-06T01:03:54;21.60;99.90
15554;DHT22;7878;44.632;10.942;2023-08-06T01:06:30;21.60;99.90
15554;DHT22;7878;44.632;10.942;2023-08-06T01:09:03;21.70;99.90
15554;DHT22;7878;44.632;10.942;2023-08-06T01:11:49;21.60;99.90
15554;DHT22;7878;44.632;10.942;2023-08-06T01:14:30;21.70;99.90
15554;DHT22;7878;44.632;10.942;2023-08-06T01:16:59;21.70;99.90
15554;DHT22;7878;44.632;10.942;2023-08-06T01:19:26;21.70;99.90
15554;DHT22;7878;44.632;10.942;2023-08-06T01:21:52;21.70;99.90
15554;DHT22;7878;44.632;10.942;2023-08-06T01:24:18;21.70;99.90
15554;DHT22;7878;44.632;10.942;2023-08-06T01:29:42;21.70;99.90
15554;DHT22;7878;44.632;10.942;2023-08-06T01:32:10;21.70;99.90
15554;DHT22;7878;44.632;10.942;2023-08-06T01:34:39;21.70;99.90
15554;DHT22;7878;44.632;10.942;2023-08-06T01:37:08;21.70;99.90
15554;DHT22;7878;44.632;10.942;2023-08-06T01:39:34;21.60;99.90
15554;DHT22;7878;44.632;10.942;2023-08-06T01:41:59;21.60;99.90
15554;DHT22;7878;44.632;10.942;2023-08-06T01:44:25;21.60;99.90
15554;DHT22;7878;44.632;10.942;2023-08-06T01:46:51;21.60;99.90
15554;DHT22;7878;44.632;10.942;2023-08-06T01:49:16;21.50;99.90
15554;DHT22;7878;44.632;10.942;2023-08-06T01:51:42;21.50;99.90
15554;DHT22;7878;44.632;10.942;2023-08-06T01:54:08;21.50;99.90
15554;DHT22;7878;44.632;10.942;2023-08-06T01:56:33;21.50;99.90
15554;DHT22;7878;44.632;10.942;2023-08-06T01:58:59;21.50;99.90
15554;DHT22;7878;44.632;10.942;2023-08-06T02:01:25;21.50;99.90
15554;DHT22;7878;44.632;10.942;2023-08-06T02:03:50;21.60;99.90
15554;DHT22;7878;44.632;10.942;2023-08-06T02:06:16;21.70;99.90
15554;DHT22;7878;44.632;10.942;2023-08-06T02:08:42;21.70;99.90
15554;DHT22;7878;44.632;10.942;2023-08-06T02:11:07;21.70;99.90
15554;DHT22;7878;44.632;10.942;2023-08-06T02:13:33;21.70;99.90
15554;DHT22;7878;44.632;10.942;2023-08-06T02:15:58;21.60;99.90
15554;DHT22;7878;44.632;10.942;2023-08-06T02:18:24;21.60;99.90
15554;DHT22;7878;44.632;10.942;2023-08-06T02:20:59;21.60;99.90
15554;DHT22;7878;44.632;10.942;2023-08-06T02:23:26;21.60;99.90
15554;DHT22;7878;44.632;10.942;2023-08-06T02:26:04;21.60;99.90
15554;DHT22;7878;44.632;10.942;2023-08-06T02:28:30;21.50;99.90
15554;DHT22;7878;44.632;10.942;2023-08-06T02:30:56;21.50;99.90
15554;DHT22;7878;44.632;10.942;2023-08-06T02:33:22;21.50;99.90
15554;DHT22;7878;44.632;10.942;2023-08-06T02:35:48;21.50;99.90
15554;DHT22;7878;44.632;10.942;2023-08-06T02:38:14;21.50;99.90
15554;DHT22;7878;44.632;10.942;2023-08-06T02:40:46;21.40;99.90
15554;DHT22;7878;44.632;10.942;2023-08-06T02:43:12;21.50;99.90
15554;DHT22;7878;44.632;10.942;2023-08-06T02:45:38;21.50;99.90
15554;DHT22;7878;44.632;10.942;2023-08-06T02:48:04;21.60;99.90
15554;DHT22;7878;44.632;10.942;2023-08-06T02:50:29;21.60;99.90
15554;DHT22;7878;44.632;10.942;2023-08-06T02:52:55;21.60;99.90
15554;DHT22;7878;44.632;10.942;2023-08-06T02:55:21;21.70;99.90
15554;DHT22;7878;44.632;10.942;2023-08-06T02:57:46;21.70;99.90
15554;DHT22;7878;44.632;10.942;2023-08-06T03:00:12;21.70;99.90
15554;DHT22;7878;44.632;10.942;2023-08-06T03:02:38;21.60;99.90
15554;DHT22;7878;44.632;10.942;2023-08-06T03:05:04;21.60;99.90
15554;DHT22;7878;44.632;10.942;2023-08-06T03:07:31;21.60;99.90
15554;DHT22;7878;44.632;10.942;2023-08-06T03:09:58;21.60;99.90
15554;DHT22;7878;44.632;10.942;2023-08-06T03:12:26;21.60;99.90
15554;DHT22;7878;44.632;10.942;2023-08-06T03:14:52;21.60;99.90
15554;DHT22;7878;44.632;10.942;2023-08-06T03:17:17;21.60;99.90
15554;DHT22;7878;44.632;10.942;2023-08-06T03:19:43;21.60;99.90
15554;DHT22;7878;44.632;10.942;2023-08-06T03:22:08;21.50;99.90
15554;DHT22;7878;44.632;10.942;2023-08-06T03:24:34;21.50;99.90
15554;DHT22;7878;44.632;10.942;2023-08-06T03:27:00;21.50;99.90
15554;DHT22;7878;44.632;10.942;2023-08-06T03:29:25;21.50;99.90
15554;DHT22;7878;44.632;10.942;2023-08-06T03:31:52;21.40;99.90
15554;DHT22;7878;44.632;10.942;2023-08-06T03:34:18;21.40;99.90
15554;DHT22;7878;44.632;10.942;2023-08-06T03:36:43;21.40;99.90
15554;DHT22;7878;44.632;10.942;2023-08-06T03:39:09;21.40;99.90
15554;DHT22;7878;44.632;10.942;2023-08-06T03:41:35;21.30;99.90
15554;DHT22;7878;44.632;10.942;2023-08-06T03:44:01;21.30;99.90
15554;DHT22;7878;44.632;10.942;2023-08-06T03:46:29;21.30;99.90
15554;DHT22;7878;44.632;10.942;2023-08-06T03:48:55;21.30;99.90
15554;DHT22;7878;44.632;10.942;2023-08-06T03:51:22;21.30;99.90
15554;DHT22;7878;44.632;10.942;2023-08-06T03:53:48;21.40;99.90
15554;DHT22;7878;44.632;10.942;2023-08-06T03:56:13;21.40;99.90
15554;DHT22;7878;44.632;10.942;2023-08-06T03:58:39;21.40;99.90
15554;DHT22;7878;44.632;10.942;2023-08-06T04:01:04;21.30;99.90
15554;DHT22;7878;44.632;10.942;2023-08-06T04:03:30;21.30;99.90
15554;DHT22;7878;44.632;10.942;2023-08-06T04:05:56;21.30;99.90
15554;DHT22;7878;44.632;10.942;2023-08-06T04:08:21;21.40;99.90
15554;DHT22;7878;44.632;10.942;2023-08-06T04:10:53;21.40;99.90
15554;DHT22;7878;44.632;10.942;2023-08-06T04:13:19;21.40;99.90
15554;DHT22;7878;44.632;10.942;2023-08-06T04:15:45;21.30;99.90
15554;DHT22;7878;44.632;10.942;2023-08-06T04:18:12;21.30;99.90
15554;DHT22;7878;44.632;10.942;2023-08-06T04:20:45;21.30;99.90
15554;DHT22;7878;44.632;10.942;2023-08-06T04:23:11;21.30;99.90
15554;DHT22;7878;44.632;10.942;2023-08-06T04:25:37;21.20;99.90
15554;DHT22;7878;44.632;10.942;2023-08-06T04:28:03;21.20;99.90
15554;DHT22;7878;44.632;10.942;2023-08-06T04:30:29;21.20;99.90
15554;DHT22;7878;44.632;10.942;2023-08-06T04:32:56;21.20;99.90
15554;DHT22;7878;44.632;10.942;2023-08-06T04:35:22;21.20;99.90
15554;DHT22;7878;44.632;10.942;2023-08-06T04:37:48;21.10;99.90
15554;DHT22;7878;44.632;10.942;2023-08-06T04:40:13;21.20;99.90
15554;DHT22;7878;44.632;10.942;2023-08-06T04:42:39;21.20;99.90
15554;DHT22;7878;44.632;10.942;2023-08-06T04:45:05;21.30;99.90
15554;DHT22;7878;44.632;10.942;2023-08-06T04:47:31;21.30;99.90
15554;DHT22;7878;44.632;10.942;2023-08-06T04:49:57;21.30;99.90
15554;DHT22;7878;44.632;10.942;2023-08-06T04:52:22;21.20;99.90
15554;DHT22;7878;44.632;10.942;2023-08-06T04:54:48;21.20;99.90
15554;DHT22;7878;44.632;10.942;2023-08-06T04:57:13;21.20;99.90
15554;DHT22;7878;44.632;10.942;2023-08-06T04:59:39;21.20;99.90
15554;DHT22;7878;44.632;10.942;2023-08-06T05:02:05;21.20;99.90
15554;DHT22;7878;44.632;10.942;2023-08-06T05:04:31;21.30;99.90
15554;DHT22;7878;44.632;10.942;2023-08-06T05:06:56;21.20;99.90
15554;DHT22;7878;44.632;10.942;2023-08-06T05:09:22;21.20;99.90
15554;DHT22;7878;44.632;10.942;2023-08-06T05:11:48;21.30;99.90
15554;DHT22;7878;44.632;10.942;2023-08-06T05:14:14;21.30;99.90
15554;DHT22;7878;44.632;10.942;2023-08-06T05:16:40;21.30;99.90
15554;DHT22;7878;44.632;10.942;2023-08-06T05:19:05;21.40;99.90
15554;DHT22;7878;44.632;10.942;2023-08-06T05:21:31;21.30;99.90
15554;DHT22;7878;44.632;10.942;2023-08-06T05:23:57;21.30;99.90
15554;DHT22;7878;44.632;10.942;2023-08-06T05:26:22;21.40;99.90
15554;DHT22;7878;44.632;10.942;2023-08-06T05:28:48;21.40;99.90
15554;DHT22;7878;44.632;10.942;2023-08-06T05:31:14;21.40;99.90
15554;DHT22;7878;44.632;10.942;2023-08-06T05:33:39;21.40;99.90
15554;DHT22;7878;44.632;10.942;2023-08-06T05:36:05;21.40;99.90
15554;DHT22;7878;44.632;10.942;2023-08-06T05:38:31;21.40;99.90
15554;DHT22;7878;44.632;10.942;2023-08-06T05:40:56;21.40;99.90
15554;DHT22;7878;44.632;10.942;2023-08-06T05:43:22;21.50;99.90
15554;DHT22;7878;44.632;10.942;2023-08-06T05:45:51;21.50;99.90
15554;DHT22;7878;44.632;10.942;2023-08-06T05:48:17;21.50;99.90
15554;DHT22;7878;44.632;10.942;2023-08-06T05:50:43;21.60;99.90
15554;DHT22;7878;44.632;10.942;2023-08-06T05:53:09;21.60;99.90
15554;DHT22;7878;44.632;10.942;2023-08-06T05:55:34;21.60;99.90
15554;DHT22;7878;44.632;10.942;2023-08-06T05:58:00;21.70;99.90
15554;DHT22;7878;44.632;10.942;2023-08-06T06:00:26;21.80;99.90
15554;DHT22;7878;44.632;10.942;2023-08-06T06:02:52;21.80;99.90
15554;DHT22;7878;44.632;10.942;2023-08-06T06:05:18;21.80;99.90
15554;DHT22;7878;44.632;10.942;2023-08-06T06:07:43;21.90;99.90
15554;DHT22;7878;44.632;10.942;2023-08-06T06:10:09;22.00;99.90
15554;DHT22;7878;44.632;10.942;2023-08-06T06:12:35;22.10;99.90
15554;DHT22;7878;44.632;10.942;2023-08-06T06:15:01;22.30;99.90
15554;DHT22;7878;44.632;10.942;2023-08-06T06:17:29;22.60;99.90
15554;DHT22;7878;44.632;10.942;2023-08-06T06:19:54;22.70;99.90
15554;DHT22;7878;44.632;10.942;2023-08-06T06:22:20;22.70;99.90
15554;DHT22;7878;44.632;10.942;2023-08-06T06:24:46;22.70;99.90
15554;DHT22;7878;44.632;10.942;2023-08-06T06:27:11;22.80;99.90
15554;DHT22;7878;44.632;10.942;2023-08-06T06:29:37;22.80;99.90
15554;DHT22;7878;44.632;10.942;2023-08-06T06:32:03;22.80;99.90
15554;DHT22;7878;44.632;10.942;2023-08-06T06:34:28;22.80;99.90
15554;DHT22;7878;44.632;10.942;2023-08-06T06:36:54;22.80;99.90
15554;DHT22;7878;44.632;10.942;2023-08-06T06:39:21;22.80;99.90
15554;DHT22;7878;44.632;10.942;2023-08-06T06:41:46;22.80;99.90
15554;DHT22;7878;44.632;10.942;2023-08-06T06:44:13;22.80;99.90
15554;DHT22;7878;44.632;10.942;2023-08-06T06:46:39;22.80;99.90
15554;DHT22;7878;44.632;10.942;2023-08-06T06:49:04;22.90;99.90
15554;DHT22;7878;44.632;10.942;2023-08-06T06:51:30;22.90;99.90
15554;DHT22;7878;44.632;10.942;2023-08-06T06:53:57;23.00;99.90
15554;DHT22;7878;44.632;10.942;2023-08-06T06:56:23;23.00;99.90
15554;DHT22;7878;44.632;10.942;2023-08-06T06:58:48;23.00;99.90
15554;DHT22;7878;44.632;10.942;2023-08-06T07:01:14;23.00;99.90
15554;DHT22;7878;44.632;10.942;2023-08-06T07:03:40;23.10;99.90
15554;DHT22;7878;44.632;10.942;2023-08-06T07:06:06;23.10;99.90
15554;DHT22;7878;44.632;10.942;2023-08-06T07:08:32;23.20;99.90
15554;DHT22;7878;44.632;10.942;2023-08-06T07:11:03;23.30;99.90
15554;DHT22;7878;44.632;10.942;2023-08-06T07:13:29;23.30;99.90
15554;DHT22;7878;44.632;10.942;2023-08-06T07:15:55;23.30;99.90
15554;DHT22;7878;44.632;10.942;2023-08-06T07:18:21;23.40;99.90
15554;DHT22;7878;44.632;10.942;2023-08-06T07:20:51;23.50;99.90
15554;DHT22;7878;44.632;10.942;2023-08-06T07:23:18;23.50;99.90
15554;DHT22;7878;44.632;10.942;2023-08-06T07:25:43;23.60;99.90
15554;DHT22;7878;44.632;10.942;2023-08-06T07:28:10;23.60;99.90
15554;DHT22;7878;44.632;10.942;2023-08-06T07:30:39;23.70;99.90
15554;DHT22;7878;44.632;10.942;2023-08-06T07:33:04;23.70;99.90
15554;DHT22;7878;44.632;10.942;2023-08-06T07:35:30;23.80;99.90
15554;DHT22;7878;44.632;10.942;2023-08-06T07:37:56;23.80;99.90
15554;DHT22;7878;44.632;10.942;2023-08-06T07:40:21;23.80;99.90
15554;DHT22;7878;44.632;10.942;2023-08-06T07:42:47;23.90;99.90
15554;DHT22;7878;44.632;10.942;2023-08-06T07:45:13;23.90;99.90
15554;DHT22;7878;44.632;10.942;2023-08-06T07:47:39;24.00;99.90
15554;DHT22;7878;44.632;10.942;2023-08-06T07:50:05;24.10;99.90
15554;DHT22;7878;44.632;10.942;2023-08-06T07:52:31;24.10;99.90
15554;DHT22;7878;44.632;10.942;2023-08-06T07:54:57;24.20;99.90
15554;DHT22;7878;44.632;10.942;2023-08-06T07:57:22;24.30;99.90
15554;DHT22;7878;44.632;10.942;2023-08-06T07:59:48;24.30;99.90
15554;DHT22;7878;44.632;10.942;2023-08-06T08:02:14;24.40;99.90
15554;DHT22;7878;44.632;10.942;2023-08-06T08:04:39;24.50;99.90
15554;DHT22;7878;44.632;10.942;2023-08-06T08:07:05;24.50;99.90
15554;DHT22;7878;44.632;10.942;2023-08-06T08:09:31;24.50;99.90
15554;DHT22;7878;44.632;10.942;2023-08-06T08:11:57;24.60;99.90
15554;DHT22;7878;44.632;10.942;2023-08-06T08:14:23;24.60;99.90
15554;DHT22;7878;44.632;10.942;2023-08-06T08:16:49;24.60;99.90
15554;DHT22;7878;44.632;10.942;2023-08-06T08:19:14;24.60;99.90
15554;DHT22;7878;44.632;10.942;2023-08-06T08:21:40;24.70;99.90
15554;DHT22;7878;44.632;10.942;2023-08-06T08:24:06;24.70;99.90
15554;DHT22;7878;44.632;10.942;2023-08-06T08:26:31;24.70;99.90
15554;DHT22;7878;44.632;10.942;2023-08-06T08:28:57;24.70;99.90
15554;DHT22;7878;44.632;10.942;2023-08-06T08:31:23;24.60;99.90
15554;DHT22;7878;44.632;10.942;2023-08-06T08:33:48;24.70;99.90
15554;DHT22;7878;44.632;10.942;2023-08-06T08:36:14;24.80;99.90
15554;DHT22;7878;44.632;10.942;2023-08-06T08:38:40;24.80;99.90
15554;DHT22;7878;44.632;10.942;2023-08-06T08:41:06;24.90;99.90
15554;DHT22;7878;44.632;10.942;2023-08-06T08:43:32;25.00;99.90
15554;DHT22;7878;44.632;10.942;2023-08-06T08:45:59;25.00;99.90
15554;DHT22;7878;44.632;10.942;2023-08-06T08:48:26;25.10;99.90
15554;DHT22;7878;44.632;10.942;2023-08-06T08:50:55;25.20;99.90
15554;DHT22;7878;44.632;10.942;2023-08-06T08:53:21;25.20;99.90
15554;DHT22;7878;44.632;10.942;2023-08-06T08:55:49;25.20;99.90
15554;DHT22;7878;44.632;10.942;2023-08-06T08:58:15;25.20;99.90
15554;DHT22;7878;44.632;10.942;2023-08-06T09:00:46;25.30;99.90
15554;DHT22;7878;44.632;10.942;2023-08-06T09:03:13;25.30;99.90
15554;DHT22;7878;44.632;10.942;2023-08-06T09:05:46;25.40;99.90
15554;DHT22;7878;44.632;10.942;2023-08-06T09:08:18;25.40;99.90
15554;DHT22;7878;44.632;10.942;2023-08-06T09:10:44;25.50;99.90
15554;DHT22;7878;44.632;10.942;2023-08-06T09:13:12;25.50;99.90
15554;DHT22;7878;44.632;10.942;2023-08-06T09:15:39;25.50;99.90
15554;DHT22;7878;44.632;10.942;2023-08-06T09:18:11;25.60;99.90
15554;DHT22;7878;44.632;10.942;2023-08-06T09:20:40;25.70;99.90
15554;DHT22;7878;44.632;10.942;2023-08-06T09:23:09;25.80;99.90
15554;DHT22;7878;44.632;10.942;2023-08-06T09:25:38;25.80;99.90
15554;DHT22;7878;44.632;10.942;2023-08-06T09:28:05;25.80;99.90
15554;DHT22;7878;44.632;10.942;2023-08-06T09:30:32;25.80;99.90
15554;DHT22;7878;44.632;10.942;2023-08-06T09:32:58;25.90;99.90
15554;DHT22;7878;44.632;10.942;2023-08-06T09:35:27;26.00;99.90
15554;DHT22;7878;44.632;10.942;2023-08-06T09:37:53;26.00;99.90
15554;DHT22;7878;44.632;10.942;2023-08-06T09:40:29;26.10;99.90
15554;DHT22;7878;44.632;10.942;2023-08-06T09:42:56;26.20;99.90
15554;DHT22;7878;44.632;10.942;2023-08-06T09:45:22;26.30;99.90
15554;DHT22;7878;44.632;10.942;2023-08-06T09:47:49;26.40;99.90
15554;DHT22;7878;44.632;10.942;2023-08-06T09:50:19;26.70;99.90
15554;DHT22;7878;44.632;10.942;2023-08-06T09:52:47;27.20;99.90
15554;DHT22;7878;44.632;10.942;2023-08-06T09:55:13;26.90;99.90
15554;DHT22;7878;44.632;10.942;2023-08-06T09:57:42;26.80;99.90
15554;DHT22;7878;44.632;10.942;2023-08-06T10:00:09;26.70;99.90
15554;DHT22;7878;44.632;10.942;2023-08-06T10:02:40;26.80;99.90
15554;DHT22;7878;44.632;10.942;2023-08-06T10:05:07;26.90;99.90
15554;DHT22;7878;44.632;10.942;2023-08-06T10:07:33;26.90;99.90
15554;DHT22;7878;44.632;10.942;2023-08-06T10:10:00;26.90;99.90
15554;DHT22;7878;44.632;10.942;2023-08-06T10:12:29;27.00;99.90
15554;DHT22;7878;44.632;10.942;2023-08-06T10:14:59;27.00;99.90
15554;DHT22;7878;44.632;10.942;2023-08-06T10:17:26;27.00;99.90
15554;DHT22;7878;44.632;10.942;2023-08-06T10:19:53;27.00;99.90
15554;DHT22;7878;44.632;10.942;2023-08-06T10:22:21;27.00;99.90
15554;DHT22;7878;44.632;10.942;2023-08-06T10:24:51;27.10;99.90
15554;DHT22;7878;44.632;10.942;2023-08-06T10:27:40;27.10;99.90
15554;DHT22;7878;44.632;10.942;2023-08-06T10:30:26;27.30;99.90
15554;DHT22;7878;44.632;10.942;2023-08-06T10:32:53;27.30;99.90
15554;DHT22;7878;44.632;10.942;2023-08-06T10:35:34;27.40;99.90
15554;DHT22;7878;44.632;10.942;2023-08-06T10:38:18;27.50;99.90
15554;DHT22;7878;44.632;10.942;2023-08-06T10:41:01;27.50;99.90
15554;DHT22;7878;44.632;10.942;2023-08-06T10:43:29;27.60;99.90
15554;DHT22;7878;44.632;10.942;2023-08-06T10:45:56;27.70;99.90
15554;DHT22;7878;44.632;10.942;2023-08-06T10:48:33;27.70;99.90
15554;DHT22;7878;44.632;10.942;2023-08-06T10:51:00;27.70;99.90
15554;DHT22;7878;44.632;10.942;2023-08-06T10:53:27;27.80;99.90
15554;DHT22;7878;44.632;10.942;2023-08-06T10:55:52;27.80;99.90
15554;DHT22;7878;44.632;10.942;2023-08-06T10:58:18;27.90;99.90
15554;DHT22;7878;44.632;10.942;2023-08-06T11:00:44;28.00;99.90
15554;DHT22;7878;44.632;10.942;2023-08-06T11:03:09;28.10;99.90
15554;DHT22;7878;44.632;10.942;2023-08-06T11:05:48;28.20;99.90
15554;DHT22;7878;44.632;10.942;2023-08-06T11:08:26;28.30;99.60
15554;DHT22;7878;44.632;10.942;2023-08-06T11:10:52;28.30;99.20
15554;DHT22;7878;44.632;10.942;2023-08-06T11:13:17;28.40;99.90
15554;DHT22;7878;44.632;10.942;2023-08-06T11:15:45;28.60;99.90
15554;DHT22;7878;44.632;10.942;2023-08-06T11:18:10;28.70;99.40
15554;DHT22;7878;44.632;10.942;2023-08-06T11:20:36;28.90;95.80
15554;DHT22;7878;44.632;10.942;2023-08-06T11:23:03;29.20;98.30
15554;DHT22;7878;44.632;10.942;2023-08-06T11:25:28;29.50;99.00
15554;DHT22;7878;44.632;10.942;2023-08-06T11:27:54;29.70;98.90
15554;DHT22;7878;44.632;10.942;2023-08-06T11:30:21;29.90;98.70
15554;DHT22;7878;44.632;10.942;2023-08-06T11:32:49;30.20;97.10
15554;DHT22;7878;44.632;10.942;2023-08-06T11:35:15;30.50;93.20
15554;DHT22;7878;44.632;10.942;2023-08-06T11:37:45;30.80;96.50
15554;DHT22;7878;44.632;10.942;2023-08-06T11:40:16;30.90;91.40
15554;DHT22;7878;44.632;10.942;2023-08-06T11:42:42;31.30;91.20
15554;DHT22;7878;44.632;10.942;2023-08-06T11:45:08;31.90;94.50
15554;DHT22;7878;44.632;10.942;2023-08-06T11:47:38;31.40;94.00
15554;DHT22;7878;44.632;10.942;2023-08-06T11:50:06;31.00;90.20
15554;DHT22;7878;44.632;10.942;2023-08-06T11:52:31;30.70;93.40
15554;DHT22;7878;44.632;10.942;2023-08-06T11:55:05;30.50;93.10
15554;DHT22;7878;44.632;10.942;2023-08-06T11:57:38;30.50;89.70
15554;DHT22;7878;44.632;10.942;2023-08-06T12:00:10;30.30;91.40
15554;DHT22;7878;44.632;10.942;2023-08-06T12:02:38;30.30;84.80
15554;DHT22;7878;44.632;10.942;2023-08-06T12:05:10;30.20;91.20
15554;DHT22;7878;44.632;10.942;2023-08-06T12:07:39;30.20;85.10
15554;DHT22;7878;44.632;10.942;2023-08-06T12:10:05;30.20;91.00
15554;DHT22;7878;44.632;10.942;2023-08-06T12:12:31;30.10;91.60
15554;DHT22;7878;44.632;10.942;2023-08-06T12:14:57;30.10;89.70
15554;DHT22;7878;44.632;10.942;2023-08-06T12:17:24;30.10;90.70
15554;DHT22;7878;44.632;10.942;2023-08-06T12:19:49;30.10;88.80
15554;DHT22;7878;44.632;10.942;2023-08-06T12:22:16;30.10;86.90
15554;DHT22;7878;44.632;10.942;2023-08-06T12:24:42;30.00;90.40
15554;DHT22;7878;44.632;10.942;2023-08-06T12:27:08;30.10;90.20
15554;DHT22;7878;44.632;10.942;2023-08-06T12:29:34;30.10;88.40
15554;DHT22;7878;44.632;10.942;2023-08-06T12:32:00;30.00;82.80
15554;DHT22;7878;44.632;10.942;2023-08-06T12:34:26;30.00;86.10
15554;DHT22;7878;44.632;10.942;2023-08-06T12:36:52;29.90;86.50
15554;DHT22;7878;44.632;10.942;2023-08-06T12:39:18;29.90;86.30
15554;DHT22;7878;44.632;10.942;2023-08-06T12:41:44;29.90;85.70
15554;DHT22;7878;44.632;10.942;2023-08-06T12:44:12;29.90;87.30
15554;DHT22;7878;44.632;10.942;2023-08-06T12:46:37;29.90;84.90
15554;DHT22;7878;44.632;10.942;2023-08-06T12:49:03;29.90;85.40
15554;DHT22;7878;44.632;10.942;2023-08-06T12:51:29;29.80;81.10
15554;DHT22;7878;44.632;10.942;2023-08-06T12:53:55;29.80;86.80
15554;DHT22;7878;44.632;10.942;2023-08-06T12:56:20;29.80;86.10
15554;DHT22;7878;44.632;10.942;2023-08-06T12:58:46;29.90;81.90
15554;DHT22;7878;44.632;10.942;2023-08-06T13:01:11;29.90;79.50
15554;DHT22;7878;44.632;10.942;2023-08-06T13:03:37;29.80;77.20
15554;DHT22;7878;44.632;10.942;2023-08-06T13:06:03;29.80;85.90
15554;DHT22;7878;44.632;10.942;2023-08-06T13:08:28;29.80;84.70
15554;DHT22;7878;44.632;10.942;2023-08-06T13:10:54;29.80;84.00
15554;DHT22;7878;44.632;10.942;2023-08-06T13:13:20;29.90;85.10
15554;DHT22;7878;44.632;10.942;2023-08-06T13:15:45;29.90;80.80
15554;DHT22;7878;44.632;10.942;2023-08-06T13:18:11;29.90;82.10
15554;DHT22;7878;44.632;10.942;2023-08-06T13:20:39;29.90;83.90
15554;DHT22;7878;44.632;10.942;2023-08-06T13:23:06;29.90;78.40
15554;DHT22;7878;44.632;10.942;2023-08-06T13:25:31;30.00;78.50
15554;DHT22;7878;44.632;10.942;2023-08-06T13:28:04;30.00;82.50
15554;DHT22;7878;44.632;10.942;2023-08-06T13:30:30;30.00;83.40
15554;DHT22;7878;44.632;10.942;2023-08-06T13:32:56;29.90;83.50
15554;DHT22;7878;44.632;10.942;2023-08-06T13:35:22;29.90;76.40
15554;DHT22;7878;44.632;10.942;2023-08-06T13:37:48;30.00;80.10
15554;DHT22;7878;44.632;10.942;2023-08-06T13:40:14;30.00;81.30
15554;DHT22;7878;44.632;10.942;2023-08-06T13:42:40;30.10;81.40
15554;DHT22;7878;44.632;10.942;2023-08-06T13:45:06;30.10;80.20
15554;DHT22;7878;44.632;10.942;2023-08-06T13:47:32;30.10;77.60
15554;DHT22;7878;44.632;10.942;2023-08-06T13:49:58;30.10;80.30
15554;DHT22;7878;44.632;10.942;2023-08-06T13:52:27;30.10;80.30
15554;DHT22;7878;44.632;10.942;2023-08-06T13:54:52;30.10;77.80
15554;DHT22;7878;44.632;10.942;2023-08-06T13:57:18;30.10;81.50
15554;DHT22;7878;44.632;10.942;2023-08-06T13:59:44;30.10;79.90
15554;DHT22;7878;44.632;10.942;2023-08-06T14:02:10;30.10;75.80
15554;DHT22;7878;44.632;10.942;2023-08-06T14:04:36;30.10;80.70
15554;DHT22;7878;44.632;10.942;2023-08-06T14:07:03;30.20;78.30
15554;DHT22;7878;44.632;10.942;2023-08-06T14:09:29;30.20;80.60
15554;DHT22;7878;44.632;10.942;2023-08-06T14:11:55;30.10;79.20
15554;DHT22;7878;44.632;10.942;2023-08-06T14:14:21;30.10;78.50
15554;DHT22;7878;44.632;10.942;2023-08-06T14:16:54;30.10;81.40
15554;DHT22;7878;44.632;10.942;2023-08-06T14:19:20;30.10;72.20
15554;DHT22;7878;44.632;10.942;2023-08-06T14:21:46;30.10;78.60
15554;DHT22;7878;44.632;10.942;2023-08-06T14:24:12;30.10;79.50
15554;DHT22;7878;44.632;10.942;2023-08-06T14:26:38;30.10;79.30
15554;DHT22;7878;44.632;10.942;2023-08-06T14:29:04;30.10;75.50
15554;DHT22;7878;44.632;10.942;2023-08-06T14:31:30;30.00;78.40
15554;DHT22;7878;44.632;10.942;2023-08-06T14:33:55;30.10;80.40
15554;DHT22;7878;44.632;10.942;2023-08-06T14:36:21;30.10;77.70
15554;DHT22;7878;44.632;10.942;2023-08-06T14:38:47;30.10;80.90
15554;DHT22;7878;44.632;10.942;2023-08-06T14:41:13;30.10;78.60
15554;DHT22;7878;44.632;10.942;2023-08-06T14:43:38;30.00;75.60
15554;DHT22;7878;44.632;10.942;2023-08-06T14:46:04;30.00;74.60
15554;DHT22;7878;44.632;10.942;2023-08-06T14:48:33;30.00;74.30
15554;DHT22;7878;44.632;10.942;2023-08-06T14:50:58;30.00;69.40
15554;DHT22;7878;44.632;10.942;2023-08-06T14:53:24;30.00;74.10
15554;DHT22;7878;44.632;10.942;2023-08-06T14:55:50;30.00;72.30
15554;DHT22;7878;44.632;10.942;2023-08-06T14:58:16;30.00;72.10
15554;DHT22;7878;44.632;10.942;2023-08-06T15:00:41;30.10;69.90
15554;DHT22;7878;44.632;10.942;2023-08-06T15:03:07;30.00;67.30
15554;DHT22;7878;44.632;10.942;2023-08-06T15:05:33;30.00;69.80
15554;DHT22;7878;44.632;10.942;2023-08-06T15:07:59;30.00;68.90
15554;DHT22;7878;44.632;10.942;2023-08-06T15:10:25;29.90;67.70
15554;DHT22;7878;44.632;10.942;2023-08-06T15:12:51;30.00;67.30
15554;DHT22;7878;44.632;10.942;2023-08-06T15:15:16;30.00;70.00
15554;DHT22;7878;44.632;10.942;2023-08-06T15:17:42;30.00;69.30
15554;DHT22;7878;44.632;10.942;2023-08-06T15:20:08;29.90;62.80
15554;DHT22;7878;44.632;10.942;2023-08-06T15:22:34;29.90;69.30
15554;DHT22;7878;44.632;10.942;2023-08-06T15:25:00;29.90;69.90
15554;DHT22;7878;44.632;10.942;2023-08-06T15:27:26;29.90;70.10
15554;DHT22;7878;44.632;10.942;2023-08-06T15:29:52;29.80;68.60